createdAt,value
2023-03-21T00:00:56.548Z,10.28
2023-03-21T00:03:25.454Z,10.26
2023-03-21T00:05:54.264Z,10.26
2023-03-21T00:08:24.954Z,10.27
2023-03-21T00:10:58.498Z,10.29
2023-03-21T00:13:32.602Z,10.31
2023-03-21T00:16:13.662Z,10.34
2023-03-21T00:18:52.637Z,10.36
2023-03-21T00:24:16.658Z,10.40
2023-03-21T00:26:45.270Z,10.40
2023-03-21T00:29:13.317Z,10.36
2023-03-21T00:31:41.369Z,10.32
2023-03-21T00:36:38.904Z,10.23
2023-03-21T00:39:08.803Z,10.17
2023-03-21T00:41:43.011Z,10.11
2023-03-21T00:44:16.091Z,10.06
2023-03-21T00:46:57.322Z,10.01
2023-03-21T00:49:34.174Z,9.95
2023-03-21T00:52:34.416Z,9.91
2023-03-21T00:54:55.566Z,9.85
2023-03-21T00:57:37.479Z,9.81
2023-03-21T01:00:10.793Z,9.77
2023-03-21T01:02:43.417Z,9.75
2023-03-21T01:05:12.070Z,9.73
2023-03-21T01:07:39.986Z,9.73
2023-03-21T01:10:08.572Z,9.74
2023-03-21T01:12:37.125Z,9.76
2023-03-21T01:15:05.670Z,9.78
2023-03-21T01:17:33.639Z,9.81
2023-03-21T01:20:01.610Z,9.84
2023-03-21T01:22:29.660Z,9.86
2023-03-21T01:25:08.795Z,9.88
2023-03-21T01:27:46.188Z,9.88
2023-03-21T01:30:21.562Z,9.87
2023-03-21T01:32:51.399Z,9.86
2023-03-21T01:35:19.719Z,9.83
2023-03-21T01:37:48.900Z,9.74
2023-03-21T01:40:20.046Z,9.67
2023-03-21T01:42:51.459Z,9.62
2023-03-21T01:45:59.289Z,9.59
2023-03-21T01:48:44.104Z,9.56
2023-03-21T01:51:13.562Z,9.51
2023-03-21T01:53:56.117Z,9.49
2023-03-21T01:56:32.132Z,9.49
2023-03-21T01:59:14.257Z,9.51
2023-03-21T02:02:07.435Z,9.53
2023-03-21T02:04:40.894Z,9.54
2023-03-21T02:07:28.915Z,9.56
2023-03-21T02:10:12.407Z,9.59
2023-03-21T02:12:43.008Z,9.61
2023-03-21T02:15:12.244Z,9.62
2023-03-21T02:18:06.590Z,9.62
2023-03-21T02:21:06.881Z,9.59
2023-03-21T02:24:20.675Z,9.55
2023-03-21T02:27:10.466Z,9.50
2023-03-21T02:30:00.235Z,9.44
2023-03-21T02:32:37.868Z,9.38
2023-03-21T02:35:19.901Z,9.33
2023-03-21T02:38:03.759Z,9.29
2023-03-21T02:40:45.790Z,9.25
2023-03-21T02:43:23.448Z,9.22
2023-03-21T02:46:00.568Z,9.22
2023-03-21T02:48:49.729Z,9.23
2023-03-21T02:51:23.052Z,9.23
2023-03-21T02:54:24.635Z,9.23
2023-03-21T02:56:49.246Z,9.25
2023-03-21T02:59:20.269Z,9.30
2023-03-21T03:01:52.425Z,9.33
2023-03-21T03:04:24.003Z,9.34
2023-03-21T03:06:58.130Z,9.34
2023-03-21T03:09:35.143Z,9.33
2023-03-21T03:12:16.802Z,9.32
2023-03-21T03:15:12.942Z,9.31
2023-03-21T03:18:14.154Z,9.28
2023-03-21T03:21:04.157Z,9.25
2023-03-21T03:24:03.508Z,9.24
2023-03-21T03:27:06.382Z,9.22
2023-03-21T03:29:39.246Z,9.22
2023-03-21T03:32:13.361Z,9.21
2023-03-21T03:34:49.822Z,9.22
2023-03-21T03:37:26.470Z,9.26
2023-03-21T03:40:08.429Z,9.29
2023-03-21T03:42:43.416Z,9.32
2023-03-21T03:45:24.679Z,9.36
2023-03-21T03:48:14.823Z,9.41
2023-03-21T03:51:29.438Z,9.44
2023-03-21T03:54:33.147Z,9.46
2023-03-21T03:57:04.528Z,9.47
2023-03-21T03:59:41.952Z,9.47
2023-03-21T04:02:33.058Z,9.45
2023-03-21T04:05:04.459Z,9.42
2023-03-21T04:07:32.568Z,9.42
2023-03-21T04:10:01.618Z,9.42
2023-03-21T04:12:29.679Z,9.40
2023-03-21T04:15:16.383Z,9.38
2023-03-21T04:17:48.757Z,9.36
2023-03-21T04:20:26.685Z,9.34
2023-03-21T04:23:03.059Z,9.29
2023-03-21T04:25:35.769Z,9.26
2023-03-21T04:28:05.934Z,9.22
2023-03-21T04:30:47.085Z,9.22
2023-03-21T04:33:25.964Z,9.24
2023-03-21T04:35:56.845Z,9.31
2023-03-21T04:38:30.846Z,9.37
2023-03-21T04:41:02.977Z,9.42
2023-03-21T04:43:32.217Z,9.45
2023-03-21T04:46:00.877Z,9.49
2023-03-21T04:48:29.297Z,9.51
2023-03-21T04:50:57.584Z,9.53
2023-03-21T04:53:25.799Z,9.52
2023-03-21T04:55:55.562Z,9.50
2023-03-21T04:58:24.295Z,9.48
2023-03-21T05:00:53.225Z,9.46
2023-03-21T05:03:22.136Z,9.46
2023-03-21T05:05:50.347Z,9.46
2023-03-21T05:08:19.880Z,9.45
2023-03-21T05:10:48.407Z,9.44
2023-03-21T05:13:17.638Z,9.42
2023-03-21T05:15:45.870Z,9.42
2023-03-21T05:18:14.201Z,9.40
2023-03-21T05:20:58.479Z,9.40
2023-03-21T05:23:31.762Z,9.42
2023-03-21T05:26:00.382Z,9.46
2023-03-21T05:28:40.099Z,9.51
2023-03-21T05:31:09.463Z,9.54
2023-03-21T05:33:37.878Z,9.57
2023-03-21T05:36:06.645Z,9.62
2023-03-21T05:38:35.076Z,9.68
2023-03-21T05:41:03.290Z,9.74
2023-03-21T05:43:32.513Z,9.80
2023-03-21T05:46:00.794Z,9.85
2023-03-21T05:48:29.995Z,9.89
2023-03-21T05:51:19.255Z,9.94
2023-03-21T05:53:48.712Z,10.01
2023-03-21T05:56:17.461Z,10.07
2023-03-21T05:58:50.241Z,10.11
2023-03-21T06:01:19.132Z,10.13
2023-03-21T06:03:52.604Z,10.17
2023-03-21T06:06:25.895Z,10.22
2023-03-21T06:09:00.620Z,10.25
2023-03-21T06:11:32.893Z,10.29
2023-03-21T06:14:30.616Z,10.33
2023-03-21T06:17:28.381Z,10.37
2023-03-21T06:20:07.120Z,10.40
2023-03-21T06:22:42.194Z,10.44
2023-03-21T06:25:10.663Z,10.49
2023-03-21T06:27:39.244Z,10.53
2023-03-21T06:30:09.067Z,10.57
2023-03-21T06:32:44.292Z,10.61
2023-03-21T06:35:15.426Z,10.63
2023-03-21T06:37:45.665Z,10.67
2023-03-21T06:40:15.029Z,10.71
2023-03-21T06:42:44.230Z,10.75
2023-03-21T06:45:12.993Z,10.79
2023-03-21T06:47:41.507Z,10.84
2023-03-21T06:50:15.548Z,10.89
2023-03-21T06:52:44.854Z,10.94
2023-03-21T06:55:13.724Z,10.99
2023-03-21T06:57:42.644Z,11.06
2023-03-21T07:00:11.929Z,11.07
2023-03-21T07:02:44.204Z,11.09
2023-03-21T07:05:18.088Z,11.14
2023-03-21T07:07:47.070Z,11.15
2023-03-21T07:10:16.155Z,11.17
2023-03-21T07:12:48.493Z,11.20
2023-03-21T07:15:26.336Z,11.29
2023-03-21T07:17:54.802Z,11.36
2023-03-21T07:20:23.635Z,11.39
2023-03-21T07:22:51.964Z,11.41
2023-03-21T07:25:20.373Z,11.43
2023-03-21T07:27:49.650Z,11.49
2023-03-21T07:30:19.310Z,11.60
2023-03-21T07:32:47.946Z,11.75
2023-03-21T07:35:18.406Z,11.91
2023-03-21T07:37:46.835Z,12.05
2023-03-21T07:40:18.342Z,12.22
2023-03-21T07:42:50.309Z,12.40
2023-03-21T07:45:29.342Z,12.62
2023-03-21T07:47:57.656Z,12.81
2023-03-21T07:50:25.969Z,13.00
2023-03-21T07:52:54.722Z,13.20
2023-03-21T07:55:23.300Z,13.45
2023-03-21T07:57:52.148Z,13.77
2023-03-21T08:00:23.337Z,14.12
2023-03-21T08:02:58.916Z,14.48
2023-03-21T08:05:38.525Z,14.84
2023-03-21T08:08:08.676Z,15.12
2023-03-21T08:10:37.694Z,15.32
2023-03-21T08:13:06.169Z,15.54
2023-03-21T08:15:34.632Z,15.81
2023-03-21T08:18:02.759Z,16.05
2023-03-21T08:20:31.393Z,16.25
2023-03-21T08:22:59.634Z,16.43
2023-03-21T08:25:28.260Z,16.58
2023-03-21T08:27:57.091Z,16.67
2023-03-21T08:30:28.346Z,16.68
2023-03-21T08:33:00.842Z,16.68
2023-03-21T08:35:31.719Z,16.64
2023-03-21T08:38:03.704Z,16.60
2023-03-21T08:40:32.027Z,16.60
2023-03-21T08:43:00.683Z,16.58
2023-03-21T08:45:29.875Z,16.57
2023-03-21T08:47:59.021Z,16.64
2023-03-21T08:50:29.778Z,16.71
2023-03-21T08:52:58.200Z,16.77
2023-03-21T08:55:26.400Z,16.80
2023-03-21T08:57:54.668Z,16.76
2023-03-21T09:00:23.338Z,16.63
2023-03-21T09:02:52.581Z,16.50
2023-03-21T09:05:23.079Z,16.40
2023-03-21T09:07:53.182Z,16.39
2023-03-21T09:10:23.441Z,16.44
2023-03-21T09:12:53.975Z,16.46
2023-03-21T09:15:25.893Z,16.47
2023-03-21T09:17:57.217Z,16.42
2023-03-21T09:20:31.473Z,16.25
2023-03-21T09:23:01.885Z,16.09
2023-03-21T09:25:31.723Z,15.89
2023-03-21T09:28:01.215Z,15.86
2023-03-21T09:30:30.261Z,15.81
2023-03-21T09:33:03.975Z,15.80
2023-03-21T09:35:32.974Z,15.90
2023-03-21T09:38:01.601Z,16.02
2023-03-21T09:41:17.555Z,16.08
2023-03-21T09:44:08.436Z,15.94
2023-03-21T09:46:58.577Z,15.82
2023-03-21T09:49:40.996Z,15.73
2023-03-21T09:52:24.634Z,15.68
2023-03-21T09:54:54.035Z,15.64
2023-03-21T09:57:34.100Z,15.61
2023-03-21T10:00:16.128Z,15.58
2023-03-21T10:02:51.045Z,15.48
2023-03-21T10:05:28.591Z,15.43
2023-03-21T10:08:19.762Z,15.45
2023-03-21T10:10:59.041Z,15.61
2023-03-21T10:13:32.480Z,15.64
2023-03-21T10:16:14.395Z,15.55
2023-03-21T10:18:44.498Z,15.58
2023-03-21T10:21:51.384Z,15.69
2023-03-21T10:24:16.527Z,15.74
2023-03-21T10:26:46.724Z,15.83
2023-03-21T10:29:17.344Z,15.76
2023-03-21T10:31:47.699Z,15.65
2023-03-21T10:34:18.225Z,15.68
2023-03-21T10:36:47.136Z,15.74
2023-03-21T10:39:35.853Z,15.67
2023-03-21T10:42:04.283Z,15.56
2023-03-21T10:44:36.204Z,15.53
2023-03-21T10:47:10.165Z,15.49
2023-03-21T10:50:06.491Z,15.57
2023-03-21T10:52:29.045Z,15.62
2023-03-21T10:55:18.890Z,15.61
2023-03-21T10:57:47.775Z,15.60
2023-03-21T11:00:26.065Z,15.70
2023-03-21T11:02:55.164Z,15.86
2023-03-21T11:05:35.340Z,16.02
2023-03-21T11:08:14.161Z,16.11
2023-03-21T11:10:54.591Z,16.04
2023-03-21T11:13:34.697Z,15.93
2023-03-21T11:16:23.396Z,15.89
2023-03-21T11:18:56.866Z,15.97
2023-03-21T11:21:29.757Z,16.03
2023-03-21T11:23:58.320Z,16.10
2023-03-21T11:26:36.880Z,16.15
2023-03-21T11:29:27.277Z,16.19
2023-03-21T11:32:01.189Z,16.14
2023-03-21T11:35:05.062Z,16.07
2023-03-21T11:37:39.385Z,16.04
2023-03-21T11:40:31.061Z,16.12
2023-03-21T11:43:23.371Z,16.11
2023-03-21T11:46:14.588Z,16.10
2023-03-21T11:48:45.523Z,16.13
2023-03-21T11:51:41.091Z,16.17
2023-03-21T11:54:25.395Z,16.28
2023-03-21T11:56:59.789Z,16.46
2023-03-21T11:59:34.356Z,16.64
2023-03-21T12:02:19.558Z,16.82
2023-03-21T12:05:00.514Z,17.07
2023-03-21T12:07:58.707Z,17.34
2023-03-21T12:10:45.628Z,17.47
2023-03-21T12:13:35.575Z,17.36
2023-03-21T12:16:24.852Z,17.16
2023-03-21T12:19:21.291Z,16.91
2023-03-21T12:22:01.989Z,16.69
2023-03-21T12:24:38.755Z,16.62
2023-03-21T12:27:19.537Z,16.52
2023-03-21T12:30:33.461Z,16.47
2023-03-21T12:33:09.260Z,16.39
2023-03-21T12:36:26.557Z,16.33
2023-03-21T12:39:15.583Z,15.81
2023-03-21T12:42:05.955Z,15.22
2023-03-21T12:44:39.343Z,13.89
2023-03-21T12:47:13.639Z,12.04
2023-03-21T12:49:49.996Z,10.52
2023-03-21T12:52:32.827Z,9.92
2023-03-21T12:55:08.294Z,9.74
2023-03-21T12:57:57.460Z,9.66
2023-03-21T13:00:38.562Z,9.57
2023-03-21T13:03:33.532Z,9.47
2023-03-21T13:06:11.369Z,9.42
2023-03-21T13:08:53.318Z,9.42
2023-03-21T13:11:25.346Z,9.45
2023-03-21T13:14:18.108Z,9.51
2023-03-21T13:16:56.084Z,9.64
2023-03-21T13:19:55.502Z,9.78
2023-03-21T13:22:31.926Z,9.81
2023-03-21T13:25:07.854Z,9.80
2023-03-21T13:27:40.164Z,9.81
2023-03-21T13:30:20.722Z,9.83
2023-03-21T13:32:52.176Z,9.79
2023-03-21T13:35:21.150Z,9.81
2023-03-21T13:37:57.738Z,9.87
2023-03-21T13:40:38.292Z,10.02
2023-03-21T13:43:44.926Z,10.25
2023-03-21T13:46:52.236Z,10.50
2023-03-21T13:49:36.818Z,10.74
2023-03-21T13:52:12.219Z,10.90
2023-03-21T13:54:53.610Z,10.99
2023-03-21T13:57:46.829Z,11.02
2023-03-21T14:00:28.097Z,10.95
2023-03-21T14:03:19.674Z,10.96
2023-03-21T14:05:52.146Z,10.99
2023-03-21T14:08:27.932Z,11.06
2023-03-21T14:11:09.416Z,11.15
2023-03-21T14:13:50.879Z,11.25
2023-03-21T14:16:22.591Z,11.41
2023-03-21T14:19:01.945Z,11.58
2023-03-21T14:21:33.476Z,11.78
2023-03-21T14:24:07.714Z,11.96
2023-03-21T14:26:44.763Z,12.12
2023-03-21T14:29:34.929Z,12.23
2023-03-21T14:32:05.956Z,12.31
2023-03-21T14:34:37.373Z,12.38
2023-03-21T14:37:08.314Z,12.47
2023-03-21T14:39:36.723Z,12.54
2023-03-21T14:42:15.112Z,12.61
2023-03-21T14:44:56.782Z,12.66
2023-03-21T14:47:28.247Z,12.73
2023-03-21T14:49:58.552Z,12.79
2023-03-21T14:52:32.395Z,12.80
2023-03-21T14:55:06.097Z,12.73
2023-03-21T14:57:34.515Z,12.68
2023-03-21T15:00:13.677Z,12.64
2023-03-21T15:02:46.143Z,12.56
2023-03-21T15:05:22.667Z,12.51
2023-03-21T15:08:01.166Z,12.45
2023-03-21T15:10:32.110Z,12.39
2023-03-21T15:13:12.425Z,12.40
2023-03-21T15:15:41.999Z,12.39
2023-03-21T15:18:19.156Z,12.38
2023-03-21T15:20:50.540Z,12.36
2023-03-21T15:23:31.431Z,12.37
2023-03-21T15:26:12.948Z,12.36
2023-03-21T15:28:41.856Z,12.36
2023-03-21T15:31:17.712Z,12.34
2023-03-21T15:33:51.035Z,12.34
2023-03-21T15:36:28.051Z,12.30
2023-03-21T15:38:56.634Z,12.28
2023-03-21T15:41:29.323Z,12.22
2023-03-21T15:44:00.798Z,12.16
2023-03-21T15:46:44.561Z,12.02
2023-03-21T15:49:13.164Z,11.85
2023-03-21T15:52:02.972Z,11.76
2023-03-21T15:54:42.700Z,11.67
2023-03-21T15:57:25.424Z,11.59
2023-03-21T16:00:21.294Z,11.52
2023-03-21T16:02:57.578Z,11.44
2023-03-21T16:05:32.193Z,11.39
2023-03-21T16:08:09.498Z,11.33
2023-03-21T16:10:38.736Z,11.25
2023-03-21T16:13:07.438Z,11.20
2023-03-21T16:15:35.654Z,11.13
2023-03-21T16:18:08.469Z,11.06
2023-03-21T16:20:45.219Z,11.01
2023-03-21T16:23:15.872Z,10.97
2023-03-21T16:25:44.715Z,10.92
2023-03-21T16:28:16.702Z,10.91
2023-03-21T16:30:45.388Z,10.89
2023-03-21T16:33:15.286Z,10.86
2023-03-21T16:35:43.656Z,10.83
2023-03-21T16:38:13.291Z,10.80
2023-03-21T16:40:43.680Z,10.79
2023-03-21T16:43:12.773Z,10.77
2023-03-21T16:45:41.301Z,10.76
2023-03-21T16:48:16.554Z,10.75
2023-03-21T16:50:48.313Z,10.74
2023-03-21T16:53:17.257Z,10.72
2023-03-21T16:55:46.139Z,10.72
2023-03-21T16:58:16.785Z,10.72
2023-03-21T17:00:44.866Z,10.71
2023-03-21T17:03:18.246Z,10.72
2023-03-21T17:05:46.768Z,10.72
2023-03-21T17:08:18.982Z,10.68
2023-03-21T17:10:47.816Z,10.67
2023-03-21T17:13:16.205Z,10.67
2023-03-21T17:15:44.261Z,10.66
2023-03-21T17:18:12.492Z,10.64
2023-03-21T17:20:41.975Z,10.62
2023-03-21T17:23:11.122Z,10.58
2023-03-21T17:25:39.438Z,10.53
2023-03-21T17:28:07.734Z,10.47
2023-03-21T17:30:40.308Z,10.42
2023-03-21T17:33:09.054Z,10.34
2023-03-21T17:35:37.785Z,10.32
2023-03-21T17:38:11.370Z,10.30
2023-03-21T17:40:40.038Z,10.28
2023-03-21T17:43:19.487Z,10.26
2023-03-21T17:45:47.806Z,10.25
2023-03-21T17:48:16.378Z,10.28
2023-03-21T17:50:44.840Z,10.33
2023-03-21T17:53:15.075Z,10.37
2023-03-21T17:55:43.612Z,10.38
2023-03-21T17:58:13.129Z,10.39
2023-03-21T18:00:41.713Z,10.38
2023-03-21T18:03:09.801Z,10.34
2023-03-21T18:05:38.216Z,10.28
2023-03-21T18:08:11.189Z,10.19
2023-03-21T18:10:41.668Z,10.09
2023-03-21T18:13:10.972Z,10.00
2023-03-21T18:15:44.891Z,9.91
2023-03-21T18:18:14.889Z,9.87
2023-03-21T18:20:54.025Z,9.85
2023-03-21T18:23:23.343Z,9.85
2023-03-21T18:25:53.042Z,9.87
2023-03-21T18:28:22.329Z,9.89
2023-03-21T18:31:08.206Z,9.89
2023-03-21T18:33:40.452Z,9.89
2023-03-21T18:36:10.265Z,9.88
2023-03-21T18:38:39.112Z,9.86
2023-03-21T18:41:10.724Z,9.83
2023-03-21T18:44:01.310Z,9.82
2023-03-21T18:46:27.474Z,9.82
2023-03-21T18:48:57.242Z,9.83
2023-03-21T18:51:25.766Z,9.86
2023-03-21T18:53:54.746Z,9.88
2023-03-21T18:57:13.135Z,9.91
2023-03-21T18:59:11.966Z,9.94
2023-03-21T19:01:40.157Z,9.97
2023-03-21T19:04:21.374Z,10.03
2023-03-21T19:06:53.205Z,10.10
2023-03-21T19:09:29.130Z,10.13
2023-03-21T19:12:01.515Z,10.18
2023-03-21T19:14:30.738Z,10.23
2023-03-21T19:17:55.872Z,10.27
2023-03-21T19:19:48.060Z,10.28
2023-03-21T19:22:16.389Z,10.26
2023-03-21T19:24:44.913Z,10.25
2023-03-21T19:27:13.455Z,10.23
2023-03-21T19:29:42.051Z,10.19
2023-03-21T19:32:10.312Z,10.14
2023-03-21T19:34:38.658Z,10.11
2023-03-21T19:37:07.325Z,10.05
2023-03-21T19:39:35.562Z,10.01
2023-03-21T19:42:15.953Z,9.98
2023-03-21T19:44:45.740Z,9.94
2023-03-21T19:47:13.898Z,9.91
2023-03-21T19:50:30.680Z,9.89
2023-03-21T19:52:32.073Z,9.87
2023-03-21T19:55:00.151Z,9.88
2023-03-21T19:57:28.105Z,9.90
2023-03-21T19:59:56.456Z,9.96
2023-03-21T20:06:09.556Z,10.02
2023-03-21T20:09:05.445Z,9.97
2023-03-21T20:11:26.297Z,9.94
2023-03-21T20:13:54.271Z,9.94
2023-03-21T20:16:22.366Z,9.88
2023-03-21T20:18:52.558Z,9.80
2023-03-21T20:21:25.417Z,9.73
2023-03-21T20:23:53.941Z,9.68
2023-03-21T20:26:21.875Z,9.66
2023-03-21T20:29:27.962Z,9.61
2023-03-21T20:31:44.846Z,9.56
2023-03-21T20:34:13.340Z,9.52
2023-03-21T20:36:43.511Z,9.49
2023-03-21T20:39:11.866Z,9.48
2023-03-21T20:41:39.977Z,9.46
2023-03-21T20:46:56.855Z,9.49
2023-03-21T20:49:26.146Z,9.49
2023-03-21T20:54:44.412Z,9.47
2023-03-21T20:57:12.674Z,9.46
2023-03-21T20:59:46.798Z,9.46
2023-03-21T21:02:15.272Z,9.46
2023-03-21T21:04:59.978Z,9.44
2023-03-21T21:07:31.162Z,9.40
2023-03-21T21:09:59.166Z,9.37
2023-03-21T21:12:28.696Z,9.34
2023-03-21T21:14:56.906Z,9.32
2023-03-21T21:18:01.584Z,9.31
2023-03-21T21:20:17.004Z,9.27
2023-03-21T21:22:58.655Z,9.17
2023-03-21T21:25:31.972Z,9.06
2023-03-21T21:28:02.029Z,8.96
2023-03-21T21:30:32.748Z,8.86
2023-03-21T21:33:01.104Z,8.78
2023-03-21T21:35:29.432Z,8.70
2023-03-21T21:37:57.383Z,8.63
2023-03-21T21:40:25.688Z,8.59
2023-03-21T21:42:53.862Z,8.54
2023-03-21T21:45:21.960Z,8.49
2023-03-21T21:47:50.248Z,8.46
2023-03-21T21:50:19.322Z,8.45
2023-03-21T21:52:54.417Z,8.45
2023-03-21T21:55:22.966Z,8.44
2023-03-21T21:57:51.036Z,8.42
2023-03-21T22:00:20.234Z,8.39
2023-03-21T22:02:48.314Z,8.36
2023-03-21T22:05:16.581Z,8.34
2023-03-21T22:07:45.999Z,8.30
2023-03-21T22:10:15.027Z,8.27
2023-03-21T22:12:43.233Z,8.26
2023-03-21T22:15:12.179Z,8.25
2023-03-21T22:17:41.176Z,8.23
2023-03-21T22:20:12.136Z,8.25
2023-03-21T22:22:40.851Z,8.24
2023-03-21T22:25:11.784Z,8.18
2023-03-21T22:27:40.937Z,8.11
2023-03-21T22:30:14.045Z,8.04
2023-03-21T22:32:42.336Z,8.00
2023-03-21T22:35:11.032Z,7.97
2023-03-21T22:37:41.514Z,7.96
2023-03-21T22:40:13.198Z,7.95
2023-03-21T22:42:42.551Z,7.91
2023-03-21T22:45:16.223Z,7.85
2023-03-21T22:47:44.311Z,7.84
2023-03-21T22:50:12.475Z,7.83
2023-03-21T22:52:40.547Z,7.83
2023-03-21T22:55:10.202Z,7.84
2023-03-21T22:57:38.284Z,7.87
2023-03-21T23:00:13.801Z,7.90
2023-03-21T23:02:42.583Z,7.94
2023-03-21T23:05:11.691Z,7.94
2023-03-21T23:07:39.783Z,7.94
2023-03-21T23:10:08.987Z,7.96
2023-03-21T23:12:37.662Z,7.94
2023-03-21T23:15:07.932Z,7.92
2023-03-21T23:17:36.122Z,7.91
2023-03-21T23:20:11.414Z,7.90
2023-03-21T23:22:39.563Z,7.87
2023-03-21T23:25:07.957Z,7.82
2023-03-21T23:27:36.255Z,7.79
2023-03-21T23:30:06.815Z,7.76
2023-03-21T23:32:34.777Z,7.75
2023-03-21T23:35:02.812Z,7.75
2023-03-21T23:37:30.741Z,7.75
2023-03-21T23:39:58.724Z,7.75
2023-03-21T23:42:29.334Z,7.75
2023-03-21T23:44:57.307Z,7.78
2023-03-21T23:47:25.374Z,7.81
2023-03-21T23:49:53.384Z,7.81
2023-03-21T23:52:22.070Z,7.83
2023-03-21T23:54:50.160Z,7.91
2023-03-21T23:57:18.763Z,7.95
2023-03-21T23:59:49.709Z,7.97
